Forside
METAR-TAF:

METAR-TAF

Lufthavne :

St. Paul Downtown Airport (Holman Field)

Saint Paul, Minnesota, USA

Breddekreds: 44-55-49N, længdekreds: 093-02-53W, højde: 214 m

Aktuelle vejr

Denne rapport blev lavet for 40 minutter siden, kl. 05:53 UTC
Vind stille
Temperatur 10°C
Fugtighed 71%
Tryk 1020 hPa
Sigt: 16.1 km
skyfri

METAR: KSTP 210553Z AUTO 00000KT 10SM CLR 10/05 A3012 RMK AO2 SLP200 T01000050 10161 20094 401670017 51003 $

Tid: 01:33 (06:33 UTC)


TAF: fraværende

Vejrobservationer og prognoser fra mere end 4000 lufthavne (METAR og TAF).

De gule og røde prikker repræsenterer de meteorologiske stationer.

Flyt musen over at se navnet på stationen.

Så klik over at se vejr observationer og prognoser.

At skifte det kort: Klik på de grønne knapper med et sort kors for at zoome ind; på den grønne knap med en bindestreg for at zoome ud; eller på de grønne pile for tilstødende kort.


METAR-TAF: